Briefing drone pour Saint-aignan

Rechercher une autre localisation

Conditions de vol :


Nous sommes le : Mercredi 14 avril 2021
Il est 23:06 UTC (01:06 LT)

Lever de soleil : 04:40 UTC (06:40 LT)
Coucher de soleil : 19:08 UTC (21:08 LT)

Météo

L'essentiel des conditions de vol

VIGILANCE MÉTÉO FRANCE - Loir-et-Cher (41)
Pas de vigilances particulieres
CARTE TEMSI
CARTES DES FRONTS
METAR de LFYR
LFYR 132300Z AUTO 03003KT 360V080 CAVOK 04/M04 Q1029

Date d'émission: 13/04/2021
Heure d'émission: 23:00 UTC
Vent: 030° (variable du 360° au 080°) pour 3 KT (6 km/h)
Visibilité horizontale: > 10 km
Plafond : Plafond et visibilité OK (CAVOK)
Température: 4 °C
Point de rosée: -4 °C
Humidité: 56%
Pression (QNH): 1029 hPa
TAF de LFYR
LFYR 131400Z 1315/1415 03009KT CAVOK

Conditions prévues :

Heure d'émission : Bulletin éffectué le 13 à 15:00 UTC
Prévision : Valide du 13 a 15:00 UTC au 14 a 15:00 UTC
Vent : 30° pour 9 KT (17 km/h)
Visibilité : > 10 km
WEBCAM POUR SAINT-AIGNAN

Réglementation

Voler en sécurité

CARTES AERONAUTIQUE 1/500.000
CARTES VAC (LFYR)
SUP AIP




Chargement des AIP...
NOTAM (SAINT-AIGNAN + Terrain à proximité / FIR )




Chargement des NOTAMS...
CONTACT PREFECTURE 41
Loir-et-Cher (41) : pref-bpas@loir-et-cher.gouv.fr


Avertissement : Les données mises à disposition sont indicatives. Oxygène Drone ne pourra être tenu responsable de dégâts causés aux biens et aux personnes.